Haines, AK

1:25 PM AKDT on March 27, 2017 (GMT -0800)
Haines

Weather History for PAHN - August, 2013

Change the Weather History Date:

Monday, August 5, 2013

  Actual Average Record
Temperature  
Mean Temperature 58 °F -  
Max Temperature 64 °F 63 °F 86 °F (1977)
Min Temperature 53 °F 50 °F 44 °F (1982)
Degree Days  
Heating Degree Days 6    
Growing Degree Days 8 (Base 50)    
Moisture  
Dew Point 55 °F    
Average Humidity 92    
Maximum Humidity 100    
Minimum Humidity 77    
Precipitation  
Precipitation 0.09 in - - ()
Sea Level Pressure  
Sea Level Pressure 30.05 in    
Wind  
Wind Speed 3 mph (SE)    
Max Wind Speed 9 mph    
Max Gust Speed -    
Visibility 6 miles    
Events Rain    
Averages and records for this station are not official NWS values.
T = Trace of Precipitation, MM = Missing Value Source: NWS Daily Summary

Daily Weather History Graph

Daily Weather History Graph

Search for Another Location

Airport or City:

Trip Planner

Search our weather history database for the weather conditions in past years. The results will help you decide how hot, cold, wet, or windy it might be!

Date:

Astronomy

Aug. 05, 2013 Rise Set
Actual Time 4:57 AM AKDT 9:16 PM AKDT
Civil Twilight 4:03 AM AKDT 10:10 PM AKDT
Nautical Twilight 2:31 AM AKDT 11:39 PM AKDT
Astronomical Twilight Sun does not rise Sun does not rise
Moon 4:05 AM AKDT (8/5) 8:07 PM AKDT (8/5)
Length of Visible Light 18h 07m
Length of Day
16h 18m
Waning Crescent, 1% of the Moon is Illuminated
Aug 5
Waning Crescent
Aug 6
New
Aug 14
First Quarter
Aug 20
Full
Aug 28
Last Quarter

Hourly Weather History & Observations

Time (AKDT) Temp. Dew Point Humidity Pressure Visibility Wind Dir Wind Speed Gust Speed Precip Events Conditions
12:06 AM 55.4 °F 55.4 °F 100% 30.06 in 3.0 mi East 4.6 mph - 0.00 in   Overcast
12:20 AM 55.4 °F 55.4 °F 100% 30.06 in 2.0 mi East 3.5 mph - 0.00 in   Overcast
12:39 AM 55.4 °F 53.6 °F 94% 30.06 in 2.5 mi ESE 3.5 mph - 0.00 in   Overcast
12:54 AM 55.0 °F 54.0 °F 96% 30.07 in 2.0 mi Calm Calm - 0.01 in   Overcast
1:40 AM 55.4 °F 53.6 °F 94% 30.05 in 1.8 mi East 3.5 mph - N/A   Overcast
1:54 AM 55.0 °F 55.0 °F 100% 30.06 in 1.8 mi Calm Calm - 0.01 in   Overcast
2:18 AM 55.4 °F 55.4 °F 100% 30.05 in 2.0 mi Calm Calm - 0.01 in Rain Light Rain
2:37 AM 55.4 °F 55.4 °F 100% 30.04 in 2.5 mi ESE 3.5 mph - 0.01 in Rain Light Rain
2:54 AM 55.0 °F 54.0 °F 96% 30.05 in 3.0 mi Calm Calm - 0.01 in Rain Light Rain
3:01 AM 55.4 °F 53.6 °F 94% 30.04 in 3.0 mi Calm Calm - 0.00 in   Overcast
3:31 AM 55.4 °F 55.4 °F 100% 30.04 in 2.5 mi Calm Calm - 0.01 in   Overcast
3:54 AM 55.0 °F 54.0 °F 96% 30.05 in 3.0 mi Calm Calm - 0.01 in Rain Light Rain
4:16 AM 53.6 °F 53.6 °F 100% 30.04 in 1.8 mi Calm Calm - 0.01 in Rain Light Rain
4:28 AM 53.6 °F 53.6 °F 100% 30.04 in 3.0 mi Calm Calm - 0.01 in Rain Light Rain
4:44 AM 53.6 °F 53.6 °F 100% 30.04 in 1.8 mi West 3.5 mph - 0.01 in Rain Light Rain
4:54 AM 54.0 °F 53.1 °F 97% 30.05 in 1.2 mi WNW 3.5 mph - 0.01 in Rain Light Rain
5:06 AM 53.6 °F 53.6 °F 100% 30.04 in 2.5 mi WNW 3.5 mph - 0.01 in Rain Light Rain
5:17 AM 55.4 °F 53.6 °F 94% 30.04 in 3.0 mi WNW 4.6 mph - 0.01 in Rain Light Rain
5:26 AM 55.4 °F 53.6 °F 94% 30.04 in 3.0 mi Calm Calm - 0.01 in Rain Light Rain
5:33 AM 55.4 °F 53.6 °F 94% 30.04 in 2.5 mi Calm Calm - 0.02 in Rain Light Rain
5:50 AM 55.4 °F 53.6 °F 94% 30.03 in 2.0 mi Calm Calm - 0.02 in Rain Light Rain
5:54 AM 55.0 °F 54.0 °F 96% 30.04 in 1.8 mi Calm Calm - 0.02 in Rain Light Rain
6:00 AM 55.4 °F 53.6 °F 94% 30.03 in 1.8 mi Calm Calm - 0.00 in Rain Light Rain
6:22 AM 55.4 °F 53.6 °F 94% 30.03 in 2.0 mi Calm Calm - 0.01 in   Overcast
6:30 AM 55.4 °F 53.6 °F 94% 30.03 in 2.5 mi Calm Calm - 0.01 in   Overcast
6:38 AM 55.4 °F 55.4 °F 100% 30.03 in 2.5 mi Calm Calm - 0.01 in   Overcast
6:54 AM 55.9 °F 55.0 °F 97% 30.05 in 2.0 mi WNW 4.6 mph - 0.01 in   Overcast
7:06 AM 55.4 °F 53.6 °F 94% 30.04 in 2.0 mi West 4.6 mph - N/A   Overcast
7:54 AM 55.9 °F 55.0 °F 97% 30.05 in 2.0 mi Calm Calm - 0.01 in   Overcast
8:01 AM 55.4 °F 55.4 °F 100% 30.04 in 1.8 mi Calm Calm - N/A   Overcast
8:04 AM 55.4 °F 55.4 °F 100% 30.04 in 2.0 mi Calm Calm - N/A   Overcast
8:12 AM 55.4 °F 55.4 °F 100% 30.04 in 3.0 mi Calm Calm - N/A   Overcast
8:54 AM 57.0 °F 55.9 °F 96% 30.05 in 6.0 mi SSE 3.5 mph - 0.00 in Rain Light Rain
9:15 AM 55.4 °F 53.6 °F 94% 30.04 in 1.8 mi Calm Calm - 0.00 in   Overcast
9:20 AM 55.4 °F 53.6 °F 94% 30.04 in 3.0 mi Calm Calm - 0.00 in   Overcast
9:33 AM 55.4 °F 53.6 °F 94% 30.05 in 1.8 mi Calm Calm - 0.00 in   Overcast
9:43 AM 57.2 °F 55.4 °F 94% 30.04 in 2.0 mi Calm Calm - 0.00 in   Overcast
9:51 AM 57.2 °F 55.4 °F 94% 30.05 in 7.0 mi SSE 4.6 mph - 0.00 in   Overcast
9:54 AM 55.9 °F 55.0 °F 97% 30.05 in 5.0 mi SSE 3.5 mph - 0.00 in   Overcast
9:59 AM 55.4 °F 53.6 °F 94% 30.04 in 1.5 mi SSE 3.5 mph - N/A   Overcast
10:07 AM 55.4 °F 53.6 °F 94% 30.05 in 2.0 mi SE 3.5 mph - N/A   Overcast
10:14 AM 55.4 °F 55.4 °F 100% 30.05 in 9.0 mi SE 4.6 mph - N/A   Overcast
10:24 AM 59.0 °F 57.2 °F 94% 30.05 in 10.0 mi SE 4.6 mph - N/A   Overcast
10:38 AM 57.2 °F 57.2 °F 100% 30.05 in 10.0 mi SE 5.8 mph - N/A   Overcast
10:54 AM 59.0 °F 57.0 °F 93% 30.06 in 10.0 mi SE 4.6 mph - N/A   Overcast
11:05 AM 59.0 °F 57.2 °F 94% 30.05 in 10.0 mi SE 6.9 mph - N/A   Overcast
11:30 AM 57.2 °F 55.4 °F 94% 30.05 in 10.0 mi SE 8.1 mph - N/A   Overcast
11:38 AM 57.2 °F 55.4 °F 94% 30.05 in 10.0 mi SE 6.9 mph - N/A   Overcast
11:47 AM 57.2 °F 55.4 °F 94% 30.05 in 10.0 mi SE 6.9 mph - N/A   Overcast
11:54 AM 59.0 °F 55.9 °F 90% 30.06 in 10.0 mi SE 5.8 mph - N/A   Overcast
12:35 PM 60.8 °F 57.2 °F 88% 30.05 in 10.0 mi SE 8.1 mph - N/A   Overcast
12:51 PM 60.8 °F 55.4 °F 82% 30.05 in 10.0 mi SE 8.1 mph - N/A   Overcast
12:54 PM 61.0 °F 57.0 °F 87% 30.06 in 10.0 mi SE 8.1 mph - N/A   Overcast
1:07 PM 60.8 °F 55.4 °F 82% 30.05 in 10.0 mi SSE 8.1 mph - N/A   Overcast
1:19 PM 62.6 °F 55.4 °F 77% 30.05 in 10.0 mi SE 6.9 mph - N/A   Overcast
1:34 PM 62.6 °F 55.4 °F 77% 30.05 in 10.0 mi SE 9.2 mph - N/A   Overcast
1:45 PM 62.6 °F 57.2 °F 82% 30.05 in 10.0 mi SE 8.1 mph - N/A   Overcast
1:54 PM 63.0 °F 57.0 °F 81% 30.06 in 10.0 mi SSE 8.1 mph - N/A   Overcast
2:54 PM 62.1 °F 55.9 °F 80% 30.06 in 10.0 mi SE 9.2 mph - N/A   Overcast
3:49 PM 62.6 °F 57.2 °F 82% 30.05 in 10.0 mi SE 6.9 mph - N/A   Mostly Cloudy
3:54 PM 62.1 °F 57.0 °F 84% 30.06 in 10.0 mi SE 6.9 mph - N/A   Mostly Cloudy
4:11 PM 62.6 °F 57.2 °F 82% 30.05 in 10.0 mi SE 8.1 mph - N/A   Mostly Cloudy
4:24 PM 60.8 °F 55.4 °F 82% 30.05 in 10.0 mi SE 6.9 mph - N/A   Overcast
4:54 PM 61.0 °F 57.0 °F 87% 30.06 in 10.0 mi ESE 6.9 mph - N/A   Mostly Cloudy
5:03 PM 62.6 °F 57.2 °F 82% 30.05 in 10.0 mi SE 6.9 mph - N/A   Mostly Cloudy
5:10 PM 60.8 °F 57.2 °F 88% 30.05 in 10.0 mi SE 8.1 mph - N/A   Overcast
5:24 PM 62.6 °F 57.2 °F 82% 30.05 in 10.0 mi SE 6.9 mph - N/A   Overcast
5:54 PM 62.1 °F 57.0 °F 84% 30.06 in 10.0 mi SE 6.9 mph - N/A   Overcast
6:54 PM 64.0 °F 57.0 °F 78% 30.06 in 10.0 mi SE 4.6 mph - N/A   Overcast
7:54 PM 62.1 °F 57.0 °F 84% 30.05 in 10.0 mi East 5.8 mph - N/A   Overcast
8:54 PM 62.1 °F 55.9 °F 80% 30.06 in 10.0 mi ESE 6.9 mph - N/A   Overcast
9:08 PM 60.8 °F 55.4 °F 82% 30.05 in 10.0 mi ESE 4.6 mph - N/A   Scattered Clouds
9:42 PM 60.8 °F 55.4 °F 82% 30.06 in 10.0 mi East 4.6 mph - N/A   Mostly Cloudy
9:54 PM 60.1 °F 55.9 °F 86% 30.07 in 10.0 mi ESE 5.8 mph - N/A   Overcast
10:54 PM 59.0 °F 55.9 °F 90% 30.07 in 10.0 mi East 3.5 mph - N/A   Overcast
11:54 PM 57.9 °F 55.0 °F 90% 30.09 in 10.0 mi East 4.6 mph - N/A   Overcast